Time;durP1;ratioP1;P1;durP2;ratioP2;P2;SDS_P1;SDS_P2;PMS_P1;PMS_P2;Temp;Humidity;BMP_temperature;BMP_pressure;BME280_temperature;BME280_humidity;BME280_pressure;Samples;Min_cycle;Max_cycle;Signal;HPM_P1;HPM_P2
2022/02/21 00:01:22;;;;;;;2.03;0.70;;;;;;;10.32;70.34;97611.97;5025235;27;103188;-72
2022/02/21 00:03:51;;;;;;;2.87;0.93;;;;;;;10.37;70.01;97617.69;5021900;27;102615;-73
2022/02/21 00:06:22;;;;;;;1.90;1.20;;;;;;;10.37;69.92;97607.13;5021925;27;102681;-72
2022/02/21 00:08:50;;;;;;;2.63;0.90;;;;;;;10.37;70.19;97588.63;5019784;27;104368;-72
2022/02/21 00:11:18;;;;;;;1.57;1.00;;;;;;;10.40;69.92;97599.78;5020453;27;103217;-72
2022/02/21 00:13:46;;;;;;;4.07;1.30;;;;;;;10.43;69.38;97585.47;5014478;27;103674;-72
2022/02/21 00:16:14;;;;;;;2.00;0.80;;;;;;;10.45;69.35;97587.00;5018097;27;103667;-72
2022/02/21 00:18:42;;;;;;;1.33;0.80;;;;;;;10.48;69.23;97577.97;5021880;27;103259;-72
2022/02/21 00:21:11;;;;;;;2.50;0.80;;;;;;;10.47;69.37;97557.78;5019395;27;103180;-72
2022/02/21 00:23:39;;;;;;;2.07;0.70;;;;;;;10.46;69.48;97543.78;5020784;27;102592;-73
2022/02/21 00:26:09;;;;;;;3.23;1.20;;;;;;;10.50;69.30;97541.69;5016648;27;102801;-72
2022/02/21 00:28:37;;;;;;;3.00;1.13;;;;;;;10.47;69.51;97526.09;5019250;27;104265;-72
2022/02/21 00:31:05;;;;;;;2.70;0.97;;;;;;;10.46;69.62;97524.47;5020058;27;103209;-72
2022/02/21 00:33:33;;;;;;;3.47;0.97;;;;;;;10.48;69.67;97533.06;5014876;27;102637;-72
2022/02/21 00:36:01;;;;;;;2.07;0.87;;;;;;;10.44;69.93;97523.78;5018748;27;102936;-73
2022/02/21 00:38:31;;;;;;;1.37;0.70;;;;;;;10.44;70.35;97531.69;5013243;27;103357;-73
2022/02/21 00:40:59;;;;;;;2.60;0.80;;;;;;;10.42;70.30;97517.78;5020546;27;103217;-69
2022/02/21 00:43:30;;;;;;;2.70;0.97;;;;;;;10.45;70.23;97514.84;5019008;27;103024;-69
2022/02/21 00:45:58;;;;;;;3.30;0.73;;;;;;;10.47;70.72;97510.25;5023044;27;103959;-69
2022/02/21 00:48:28;;;;;;;1.63;0.80;;;;;;;10.41;71.77;97514.28;5018273;27;103251;-69
2022/02/21 00:50:56;;;;;;;2.60;1.00;;;;;;;10.35;72.67;97511.41;5018057;27;105547;-69
2022/02/21 00:53:24;;;;;;;3.57;1.00;;;;;;;10.25;73.27;97516.66;5021953;27;103096;-68
2022/02/21 00:55:53;;;;;;;3.17;1.37;;;;;;;10.27;73.21;97504.13;5017985;27;102826;-68
2022/02/21 00:58:22;;;;;;;2.90;1.10;;;;;;;10.29;73.15;97491.66;5023295;27;103302;-68
2022/02/21 01:00:50;;;;;;;3.03;0.90;;;;;;;10.23;72.99;97486.09;5012650;27;103561;-68
2022/02/21 01:03:18;;;;;;;2.87;1.07;;;;;;;10.29;73.23;97472.34;5017635;27;102749;-69
2022/02/21 01:05:46;;;;;;;2.20;1.00;;;;;;;10.22;72.83;97458.84;5017455;27;104003;-69
2022/02/21 01:08:17;;;;;;;1.87;1.20;;;;;;;10.32;73.01;97459.72;5018324;27;103265;-68
2022/02/21 01:10:45;;;;;;;2.53;1.10;;;;;;;10.28;72.88;97452.19;5016136;27;103215;-68
2022/02/21 01:13:14;;;;;;;2.50;1.00;;;;;;;10.22;73.50;97437.75;5001412;27;102692;-69
2022/02/21 01:15:42;;;;;;;2.77;1.27;;;;;;;10.20;73.89;97459.97;5019201;27;103660;-69
2022/02/21 01:18:10;;;;;;;5.70;1.10;;;;;;;10.21;73.64;97427.34;5019885;27;104035;-68
2022/02/21 01:20:38;;;;;;;4.00;1.30;;;;;;;10.25;73.50;97431.34;5017253;27;104163;-68
2022/02/21 01:23:06;;;;;;;3.40;1.00;;;;;;;10.19;73.59;97413.47;5020210;27;102728;-68
2022/02/21 01:25:34;;;;;;;1.83;1.03;;;;;;;10.23;74.01;97418.31;5021029;27;102587;-68
2022/02/21 01:28:02;;;;;;;4.00;1.27;;;;;;;10.18;73.87;97409.13;5018669;27;104068;-68
2022/02/21 01:30:32;;;;;;;4.60;1.30;;;;;;;10.16;74.05;97413.72;5018044;27;103380;-69
2022/02/21 01:33:00;;;;;;;4.33;1.07;;;;;;;10.22;73.99;97400.78;5017339;27;102806;-68
2022/02/21 01:35:27;;;;;;;2.63;1.13;;;;;;;10.11;74.42;97382.44;5019796;27;102760;-68
2022/02/21 01:37:55;;;;;;;1.77;0.90;;;;;;;10.10;74.63;97390.50;5016063;27;103814;-67
2022/02/21 01:40:23;;;;;;;1.97;1.00;;;;;;;10.07;74.65;97382.84;5019908;27;103177;-68
2022/02/21 01:42:52;;;;;;;5.23;1.30;;;;;;;10.05;74.83;97376.91;5020791;27;102521;-68
2022/02/21 01:45:20;;;;;;;2.63;1.10;;;;;;;10.08;74.78;97366.03;5018942;27;103767;-69
2022/02/21 01:47:50;;;;;;;2.13;1.00;;;;;;;10.03;75.02;97355.91;5019917;27;103284;-68
2022/02/21 01:50:18;;;;;;;0.77;0.67;;;;;;;10.00;75.11;97347.44;5020198;27;103213;-68
2022/02/21 01:52:47;;;;;;;4.33;1.07;;;;;;;9.98;75.52;97339.69;5022777;27;102791;-68
2022/02/21 01:55:15;;;;;;;1.97;0.90;;;;;;;9.98;75.25;97341.47;5019618;27;102655;-68
2022/02/21 01:57:48;;;;;;;2.20;0.80;;;;;;;9.96;75.81;97340.78;5019972;27;104269;-68
2022/02/21 02:00:17;;;;;;;2.93;1.33;;;;;;;9.98;75.48;97342.31;5017770;27;103186;-68
2022/02/21 02:02:46;;;;;;;2.23;0.83;;;;;;;9.94;75.38;97342.75;5012359;27;102655;-68
2022/02/21 02:05:16;;;;;;;2.37;1.00;;;;;;;10.01;75.51;97328.84;5019606;27;102802;-68
2022/02/21 02:07:45;;;;;;;2.13;0.73;;;;;;;9.97;75.34;97313.41;5018078;27;103225;-68
2022/02/21 02:10:14;;;;;;;2.63;0.90;;;;;;;9.94;75.26;97297.91;5017052;27;103173;-68
2022/02/21 02:12:43;;;;;;;1.87;1.00;;;;;;;9.96;75.23;97303.84;5020253;27;102818;-68
2022/02/21 02:15:12;;;;;;;2.33;0.70;;;;;;;9.96;74.93;97278.31;5018070;27;102639;-68
2022/02/21 02:17:40;;;;;;;2.93;0.80;;;;;;;9.96;75.11;97282.75;5022737;27;103316;-68
2022/02/21 02:20:10;;;;;;;3.20;0.90;;;;;;;9.93;74.65;97288.31;5020594;27;104183;-68
2022/02/21 02:22:40;;;;;;;3.63;1.13;;;;;;;9.93;74.51;97272.47;5023684;27;103101;-68
2022/02/21 02:25:09;;;;;;;1.23;0.70;;;;;;;9.94;74.39;97268.88;5024318;27;103748;-68
2022/02/21 02:27:37;;;;;;;1.40;0.70;;;;;;;9.92;74.75;97258.44;5019887;27;104118;-68
2022/02/21 02:30:06;;;;;;;1.03;0.63;;;;;;;9.96;74.64;97245.81;5023043;27;103228;-68
2022/02/21 02:32:34;;;;;;;3.23;0.93;;;;;;;9.96;74.55;97261.66;5021863;27;102610;-68
2022/02/21 02:35:03;;;;;;;1.77;0.73;;;;;;;9.93;74.90;97240.81;5020476;27;102677;-68
2022/02/21 02:37:31;;;;;;;1.07;0.60;;;;;;;9.89;74.97;97246.38;5021819;27;103517;-68
2022/02/21 02:40:00;;;;;;;3.87;0.80;;;;;;;9.88;75.44;97234.16;5018735;27;103232;-68
2022/02/21 02:42:28;;;;;;;0.90;0.57;;;;;;;9.86;76.14;97230.00;5019142;27;102686;-68
2022/02/21 02:44:56;;;;;;;1.67;0.67;;;;;;;9.78;77.29;97233.34;5025639;27;103146;-68
2022/02/21 02:47:24;;;;;;;1.30;0.60;;;;;;;9.70;78.12;97229.75;5023930;27;103172;-68
2022/02/21 02:49:52;;;;;;;2.73;0.73;;;;;;;9.69;78.72;97226.28;5020127;27;102983;-68
2022/02/21 02:52:20;;;;;;;2.20;0.70;;;;;;;9.60;79.57;97211.28;5020726;27;102499;-68
2022/02/21 02:54:48;;;;;;;1.20;0.70;;;;;;;9.59;80.28;97206.16;5021399;27;102609;-68
2022/02/21 02:57:17;;;;;;;1.23;0.70;;;;;;;9.57;80.96;97201.03;5022531;27;104007;-68
2022/02/21 02:59:45;;;;;;;1.40;0.67;;;;;;;9.56;81.68;97183.56;5017852;27;103194;-68
2022/02/21 03:02:13;;;;;;;2.93;0.70;;;;;;;9.57;82.29;97169.38;5016477;27;103162;-68
2022/02/21 03:04:41;;;;;;;3.40;0.80;;;;;;;9.47;82.49;97159.84;5014784;27;103909;-68
2022/02/21 03:07:09;;;;;;;0.77;0.60;;;;;;;9.55;82.52;97155.53;5020211;27;104203;-68
2022/02/21 03:09:37;;;;;;;0.83;0.67;;;;;;;9.55;82.67;97142.34;5015496;27;104175;-67
2022/02/21 03:12:06;;;;;;;2.33;0.80;;;;;;;9.48;82.26;97135.97;5022609;27;103645;-68
2022/02/21 03:14:35;;;;;;;0.50;0.50;;;;;;;9.56;82.08;97122.94;5022547;27;102716;-67
2022/02/21 03:17:04;;;;;;;1.00;0.70;;;;;;;9.55;82.25;97131.78;5019308;27;103603;-71
2022/02/21 03:19:32;;;;;;;1.47;0.73;;;;;;;9.55;81.93;97152.88;5017691;27;102983;-71
2022/02/21 03:22:01;;;;;;;2.20;0.80;;;;;;;9.56;80.72;97136.09;5021036;27;102536;-72
2022/02/21 03:24:29;;;;;;;1.90;0.53;;;;;;;9.59;80.66;97149.00;5020975;27;102846;-71
2022/02/21 03:26:57;;;;;;;0.93;0.63;;;;;;;9.64;79.88;97167.88;5017544;27;104398;-72
2022/02/21 03:29:25;;;;;;;1.33;0.60;;;;;;;9.70;79.18;97171.72;5022492;27;103245;-72
2022/02/21 03:31:54;;;;;;;2.00;0.57;;;;;;;9.69;79.90;97194.63;5018743;27;102726;-72
2022/02/21 03:34:25;;;;;;;1.23;0.50;;;;;;;9.61;82.36;97428.34;5020912;27;103874;-72
2022/02/21 03:36:53;;;;;;;2.57;0.80;;;;;;;7.91;83.30;97518.28;5021059;27;103618;-71
2022/02/21 03:39:21;;;;;;;3.50;1.23;;;;;;;5.73;88.84;97519.16;5019300;27;104128;-71
2022/02/21 03:41:49;;;;;;;1.83;0.63;;;;;;;5.16;91.64;97513.63;5019403;27;102863;-71
2022/02/21 03:44:17;;;;;;;1.53;0.70;;;;;;;4.75;92.05;97498.13;5018124;27;102848;-71
2022/02/21 03:46:45;;;;;;;1.50;0.60;;;;;;;4.98;93.10;97517.50;5025866;27;102928;-70
2022/02/21 03:49:14;;;;;;;2.17;0.60;;;;;;;5.01;92.84;97535.59;5019189;27;103224;-70
2022/02/21 03:51:45;;;;;;;2.37;0.53;;;;;;;4.82;92.45;97533.41;5022402;27;102603;-70
2022/02/21 03:54:13;;;;;;;2.60;0.80;;;;;;;4.64;92.74;97537.25;5021114;27;103740;-65
2022/02/21 03:56:41;;;;;;;1.67;0.67;;;;;;;4.62;93.31;97518.22;5021746;27;103457;-67
2022/02/21 03:59:09;;;;;;;2.93;1.13;;;;;;;4.79;93.05;97536.22;5016973;27;103201;-65
2022/02/21 04:01:39;;;;;;;1.87;0.60;;;;;;;4.69;91.98;97567.38;5022753;27;102632;-70
2022/02/21 04:04:07;;;;;;;1.43;0.70;;;;;;;4.71;93.33;97575.16;5019684;27;102643;-70
2022/02/21 04:06:36;;;;;;;2.90;0.73;;;;;;;4.64;93.40;97579.09;5017523;27;104179;-70
2022/02/21 04:09:04;;;;;;;3.63;0.80;;;;;;;4.55;92.15;97579.69;5019004;27;104193;-71
2022/02/21 04:11:32;;;;;;;1.47;0.70;;;;;;;4.50;93.14;97594.88;5016728;27;102628;-65
2022/02/21 04:14:00;;;;;;;2.63;0.87;;;;;;;4.64;93.82;97571.25;5020040;27;102701;-65
2022/02/21 04:16:32;;;;;;;1.93;0.93;;;;;;;4.36;94.48;97589.69;5022265;27;104486;-65
2022/02/21 04:19:00;;;;;;;2.60;0.80;;;;;;;4.33;94.76;97558.50;5022607;27;103098;-66
2022/02/21 04:21:27;;;;;;;1.37;0.70;;;;;;;4.35;93.69;97548.81;5020725;27;102665;-64
2022/02/21 04:23:57;;;;;;;1.83;0.90;;;;;;;4.52;93.99;97543.31;5021766;27;104002;-64
2022/02/21 04:26:25;;;;;;;2.07;1.00;;;;;;;4.51;91.49;97531.16;5019951;27;104361;-65
2022/02/21 04:28:53;;;;;;;2.87;0.90;;;;;;;4.46;91.19;97543.72;5018229;27;103228;-65
2022/02/21 04:31:21;;;;;;;3.93;1.00;;;;;;;4.45;89.00;97535.03;5020352;27;102620;-64
2022/02/21 04:33:49;;;;;;;4.47;1.10;;;;;;;4.74;85.11;97519.16;5018922;27;103750;-65
2022/02/21 04:36:18;;;;;;;3.40;1.10;;;;;;;4.81;83.27;97523.88;5021695;27;103249;-65
2022/02/21 04:38:46;;;;;;;3.30;0.93;;;;;;;4.77;81.26;97501.50;5013228;27;103371;-66
2022/02/21 04:41:15;;;;;;;2.70;0.90;;;;;;;4.96;81.95;97469.66;5010106;27;102605;-66
2022/02/21 04:43:43;;;;;;;2.00;1.17;;;;;;;4.78;82.71;97450.81;5018426;27;104385;-66
2022/02/21 04:46:11;;;;;;;5.53;1.23;;;;;;;4.93;83.22;97443.69;5022831;27;103696;-66
2022/02/21 04:48:39;;;;;;;3.87;1.00;;;;;;;5.00;82.44;97461.47;5016480;27;103053;-69
2022/02/21 04:51:07;;;;;;;4.90;1.33;;;;;;;4.84;82.62;97455.63;5016869;27;102770;-68
2022/02/21 04:53:35;;;;;;;3.73;1.20;;;;;;;4.89;82.15;97466.63;5018290;27;103980;-68
2022/02/21 04:56:04;;;;;;;3.70;1.00;;;;;;;4.89;82.09;97471.00;5019560;27;103966;-68
2022/02/21 04:58:34;;;;;;;3.50;1.10;;;;;;;4.95;82.30;97474.06;5017957;27;104142;-74
2022/02/21 05:01:02;;;;;;;3.37;1.20;;;;;;;4.94;82.48;97482.84;5017733;27;102628;-73
2022/02/21 05:03:30;;;;;;;3.00;1.20;;;;;;;5.03;82.81;97507.53;5020829;27;103990;-68
2022/02/21 05:05:58;;;;;;;3.40;1.20;;;;;;;4.97;82.46;97513.22;5018655;27;103361;-68
2022/02/21 05:08:26;;;;;;;5.93;1.60;;;;;;;5.00;83.75;97519.06;5018759;27;103099;-73
2022/02/21 05:10:54;;;;;;;4.00;1.40;;;;;;;4.98;82.99;97505.25;5016827;27;102762;-68
2022/02/21 05:13:22;;;;;;;5.70;1.70;;;;;;;5.05;82.94;97498.63;5018583;27;104040;-73
2022/02/21 05:15:51;;;;;;;5.07;1.60;;;;;;;5.12;83.05;97518.22;5020186;27;102981;-71
2022/02/21 05:18:19;;;;;;;3.97;1.20;;;;;;;5.21;82.38;97522.84;5008459;27;103177;-71
2022/02/21 05:20:47;;;;;;;5.10;1.73;;;;;;;5.17;81.47;97555.41;5013714;27;102806;-71
2022/02/21 05:23:15;;;;;;;5.43;1.80;;;;;;;5.22;81.92;97550.69;5014360;27;103855;-71
2022/02/21 05:25:43;;;;;;;5.83;1.83;;;;;;;5.24;80.51;97556.66;5019100;27;104038;-73
2022/02/21 05:28:13;;;;;;;6.60;1.43;;;;;;;5.31;80.71;97566.69;5018926;27;103656;-71
2022/02/21 05:30:41;;;;;;;6.87;1.70;;;;;;;5.41;81.22;97565.97;5015051;27;102690;-73
2022/02/21 05:33:13;;;;;;;4.57;1.50;;;;;;;5.39;80.73;97567.03;5018885;27;103531;-71
2022/02/21 05:35:41;;;;;;;4.93;1.33;;;;;;;5.41;80.56;97550.25;5021523;27;103314;-71
2022/02/21 05:38:09;;;;;;;4.23;1.57;;;;;;;5.28;80.16;97557.28;5019266;27;104339;-71
2022/02/21 05:40:37;;;;;;;5.13;1.60;;;;;;;5.38;79.45;97566.19;5016891;27;102652;-71
2022/02/21 05:43:05;;;;;;;4.20;1.53;;;;;;;5.33;79.14;97568.28;5017091;27;103843;-71
2022/02/21 05:45:33;;;;;;;5.97;1.90;;;;;;;5.35;78.07;97570.78;5021079;27;103189;-71
2022/02/21 05:48:03;;;;;;;7.07;2.10;;;;;;;5.41;78.33;97567.75;5018890;27;103363;-71
2022/02/21 05:50:32;;;;;;;7.73;1.77;;;;;;;5.42;77.63;97551.09;5018521;27;103771;-71
2022/02/21 05:53:00;;;;;;;7.50;1.87;;;;;;;5.56;78.29;97564.06;5021939;27;102862;-71
2022/02/21 05:55:28;;;;;;;7.40;2.03;;;;;;;5.48;77.50;97587.31;5020379;27;103078;-71
2022/02/21 05:57:57;;;;;;;8.67;2.10;;;;;;;5.49;77.84;97609.97;5019915;27;103276;-73
2022/02/21 06:00:26;;;;;;;8.77;1.93;;;;;;;5.47;77.08;97601.38;5018019;27;103217;-72
2022/02/21 06:02:54;;;;;;;12.97;2.30;;;;;;;5.48;77.07;97597.81;5019061;27;102565;-73
2022/02/21 06:05:22;;;;;;;6.87;2.00;;;;;;;5.47;76.99;97590.91;5020641;27;103906;-73
2022/02/21 06:07:51;;;;;;;9.83;1.83;;;;;;;5.49;77.15;97595.09;5016662;27;103201;-71
2022/02/21 06:10:22;;;;;;;6.90;1.80;;;;;;;5.57;77.34;97591.94;5010215;27;103696;-71
2022/02/21 06:12:50;;;;;;;6.83;2.47;;;;;;;5.57;77.83;97586.69;5018471;27;102651;-71
2022/02/21 06:15:18;;;;;;;7.17;1.90;;;;;;;5.51;77.25;97564.38;5003965;27;103204;-71
2022/02/21 06:17:46;;;;;;;6.93;2.10;;;;;;;5.54;77.19;97586.91;5015680;27;103207;-73
2022/02/21 06:20:14;;;;;;;7.90;2.40;;;;;;;5.53;77.19;97630.59;5018248;27;102740;-73
2022/02/21 06:22:42;;;;;;;7.40;2.03;;;;;;;5.54;76.23;97628.81;5013752;27;102675;-73
2022/02/21 06:25:11;;;;;;;10.03;2.20;;;;;;;5.53;76.13;97627.16;5015506;27;103722;-73
2022/02/21 06:27:39;;;;;;;7.80;2.40;;;;;;;5.50;75.77;97622.94;5000675;27;103224;-73
2022/02/21 06:30:09;;;;;;;9.60;2.10;;;;;;;5.49;75.73;97616.06;5013745;27;102570;-71
2022/02/21 06:32:37;;;;;;;8.10;2.33;;;;;;;5.52;75.75;97646.44;5019956;27;104437;-72
2022/02/21 06:35:07;;;;;;;9.43;2.60;;;;;;;5.62;74.95;97668.44;5017502;27;103788;-73
2022/02/21 06:37:40;;;;;;;7.73;1.83;;;;;;;5.63;74.01;97670.13;5014570;27;103256;-72
2022/02/21 06:40:09;;;;;;;4.17;2.03;;;;;;;5.64;74.38;97692.78;5014689;27;103032;-73
2022/02/21 06:42:39;;;;;;;8.30;2.03;;;;;;;5.60;73.56;97691.28;5019301;27;103981;-73
2022/02/21 06:45:08;;;;;;;11.83;2.23;;;;;;;5.52;73.08;97668.25;5015596;27;103275;-71
2022/02/21 06:47:36;;;;;;;7.50;2.40;;;;;;;5.64;72.59;97671.81;5014180;27;103200;-71
2022/02/21 06:50:06;;;;;;;6.83;2.30;;;;;;;5.54;73.36;97660.25;5017078;27;102693;-73
2022/02/21 06:52:34;;;;;;;7.13;1.90;;;;;;;5.43;74.88;97665.41;5017656;27;103519;-72
2022/02/21 06:55:03;;;;;;;6.40;2.30;;;;;;;5.54;74.88;97670.75;5013587;27;103990;-72
2022/02/21 06:57:33;;;;;;;7.13;2.10;;;;;;;5.51;74.41;97677.03;5016886;27;103051;-72
2022/02/21 07:00:04;;;;;;;6.67;1.67;;;;;;;5.54;73.89;97682.06;5018599;27;103120;-72
2022/02/21 07:02:32;;;;;;;8.30;2.07;;;;;;;5.51;73.52;97694.53;5023212;27;102700;-72
2022/02/21 07:05:00;;;;;;;6.60;2.13;;;;;;;5.41;73.67;97690.88;5011375;27;104099;-72
2022/02/21 07:07:28;;;;;;;7.50;1.90;;;;;;;5.46;73.24;97700.09;5021951;27;103224;-72
2022/02/21 07:09:56;;;;;;;7.70;2.20;;;;;;;5.39;72.16;97705.84;5015799;27;103797;-71
2022/02/21 07:12:24;;;;;;;5.57;1.80;;;;;;;5.46;72.91;97699.25;5022637;27;102736;-72
2022/02/21 07:14:52;;;;;;;8.60;2.07;;;;;;;5.39;71.19;97705.84;5020650;27;103963;-72
2022/02/21 07:17:21;;;;;;;6.37;1.63;;;;;;;5.25;70.80;97709.38;5021148;27;102986;-72
2022/02/21 07:19:51;;;;;;;10.03;2.10;;;;;;;5.15;71.07;97709.16;4999990;27;103191;-71
2022/02/21 07:22:18;;;;;;;10.87;2.27;;;;;;;5.19;71.15;97705.38;5017125;27;104355;-71
2022/02/21 07:24:46;;;;;;;11.77;2.17;;;;;;;5.56;69.40;97708.16;5016600;27;104018;-71
2022/02/21 07:27:14;;;;;;;7.07;1.93;;;;;;;5.73;68.34;97707.84;5021061;27;103216;-71
2022/02/21 07:29:42;;;;;;;10.00;2.30;;;;;;;5.85;67.64;97714.91;5019074;27;102651;-71
2022/02/21 07:32:10;;;;;;;8.43;2.10;;;;;;;5.84;66.67;97715.81;5019780;27;103322;-71
2022/02/21 07:34:40;;;;;;;9.33;1.90;;;;;;;6.04;66.75;97714.47;5016065;27;103260;-71
2022/02/21 07:37:08;;;;;;;7.30;2.07;;;;;;;6.29;66.73;97714.44;5018972;27;103206;-71
2022/02/21 07:39:36;;;;;;;6.93;1.70;;;;;;;6.34;65.48;97736.75;5014519;27;102699;-71
2022/02/21 07:42:05;;;;;;;9.47;1.87;;;;;;;6.46;65.56;97736.88;5021472;27;102677;-71
2022/02/21 07:44:36;;;;;;;9.73;1.97;;;;;;;6.51;63.72;97742.63;5016746;27;103885;-71
2022/02/21 07:47:05;;;;;;;9.13;1.80;;;;;;;6.72;64.90;97744.56;5023301;27;103185;-71
2022/02/21 07:49:33;;;;;;;9.00;2.53;;;;;;;6.85;63.42;97750.59;5006026;27;103713;-71
2022/02/21 07:52:02;;;;;;;6.27;2.00;;;;;;;6.73;63.51;97753.28;5018356;27;105036;-71
2022/02/21 07:54:30;;;;;;;7.00;2.10;;;;;;;6.75;62.19;97756.63;5016525;27;103950;-71
2022/02/21 07:57:13;;;;;;;5.37;2.10;;;;;;;6.92;63.23;97775.47;5019681;27;103276;-71
2022/02/21 07:59:44;;;;;;;10.43;2.33;;;;;;;7.21;62.71;97768.13;5021140;27;102621;-69
2022/02/21 08:02:12;;;;;;;6.47;2.10;;;;;;;7.46;62.56;97775.03;5018792;27;102850;-69
2022/02/21 08:04:40;;;;;;;8.83;2.40;;;;;;;7.29;62.22;97784.16;5018541;27;103198;-70
2022/02/21 08:07:09;;;;;;;12.77;2.67;;;;;;;7.50;61.64;97795.69;5015193;27;103030;-70
2022/02/21 08:09:37;;;;;;;10.90;2.33;;;;;;;7.38;62.86;97799.22;5020805;27;102657;-70
2022/02/21 08:12:07;;;;;;;12.03;2.90;;;;;;;7.98;60.72;97792.97;5023281;27;103863;-70
2022/02/21 08:14:35;;;;;;;9.67;2.97;;;;;;;8.11;61.53;97820.84;5019526;27;104209;-70
2022/02/21 08:17:04;;;;;;;7.63;2.37;;;;;;;7.67;61.18;97809.38;5015455;27;103272;-70
2022/02/21 08:19:32;;;;;;;7.80;2.40;;;;;;;7.67;61.57;97819.88;5018342;27;102507;-70
2022/02/21 08:22:03;;;;;;;13.67;2.83;;;;;;;7.59;61.65;97817.84;5018553;27;103978;-70
2022/02/21 08:24:33;;;;;;;11.30;2.67;;;;;;;7.74;61.84;97834.28;5012368;27;104173;-70
2022/02/21 08:27:01;;;;;;;8.83;2.80;;;;;;;7.80;60.65;97841.69;5004920;27;103202;-70
2022/02/21 08:29:29;;;;;;;12.67;2.87;;;;;;;7.54;61.59;97844.47;5012926;27;102664;-70
2022/02/21 08:31:56;;;;;;;7.23;2.37;;;;;;;7.53;62.62;97834.91;5019533;27;103857;-71
2022/02/21 08:34:25;;;;;;;9.90;2.47;;;;;;;7.69;61.50;97842.47;5010878;27;103472;-71
2022/02/21 08:36:53;;;;;;;8.20;2.50;;;;;;;8.59;60.89;97842.59;5019934;27;103182;-71
2022/02/21 08:39:21;;;;;;;12.20;2.83;;;;;;;8.37;59.57;97847.84;5010455;27;102642;-71
2022/02/21 08:41:52;;;;;;;12.90;2.53;;;;;;;8.82;58.45;97846.06;5016503;27;102763;-71
2022/02/21 08:44:20;;;;;;;7.10;2.40;;;;;;;8.65;58.42;97834.22;5015521;27;104177;-71
2022/02/21 08:46:49;;;;;;;9.00;2.50;;;;;;;8.65;57.25;97836.00;5021849;27;103240;-71
2022/02/21 08:49:16;;;;;;;10.40;2.30;;;;;;;9.00;57.28;97843.78;5019591;27;102606;-71
2022/02/21 08:51:44;;;;;;;10.90;2.87;;;;;;;9.03;57.30;97851.44;5012040;27;103912;-70
2022/02/21 08:54:12;;;;;;;10.60;2.70;;;;;;;8.89;56.92;97851.69;5019086;27;103219;-70
2022/02/21 08:56:40;;;;;;;11.63;2.70;;;;;;;8.41;58.62;97873.00;5015884;27;104283;-74
2022/02/21 08:59:09;;;;;;;7.40;2.40;;;;;;;8.10;60.03;97868.34;5010297;27;102603;-70
2022/02/21 09:01:42;;;;;;;10.83;2.80;;;;;;;7.82;59.92;97866.94;5018256;27;102682;-74
2022/02/21 09:04:10;;;;;;;10.03;2.67;;;;;;;7.79;61.46;97868.94;5017959;27;104013;-74
2022/02/21 09:06:38;;;;;;;8.97;2.97;;;;;;;8.03;61.42;97886.34;5019283;27;105950;-74
2022/02/21 09:09:06;;;;;;;10.57;2.57;;;;;;;7.86;62.04;97875.44;5011126;27;103822;-73
2022/02/21 09:11:34;;;;;;;8.47;2.50;;;;;;;7.82;61.15;97879.22;5016437;27;103926;-74
2022/02/21 09:14:04;;;;;;;7.77;2.63;;;;;;;7.86;60.59;97878.88;5015703;27;103258;-74
2022/02/21 09:16:34;;;;;;;9.43;2.70;;;;;;;7.90;61.08;97874.25;5017981;27;103464;-74
2022/02/21 09:19:03;;;;;;;10.87;2.63;;;;;;;7.85;61.29;97876.38;5020901;27;102671;-74
2022/02/21 09:21:31;;;;;;;6.90;2.63;;;;;;;7.75;60.59;97891.16;5018183;27;102559;-74
2022/02/21 09:23:59;;;;;;;7.33;2.43;;;;;;;7.66;60.91;97882.16;5022354;27;103668;-74
2022/02/21 09:26:27;;;;;;;9.07;2.67;;;;;;;7.69;60.71;97886.34;5015243;27;103200;-74
2022/02/21 09:28:57;;;;;;;10.23;2.50;;;;;;;7.72;61.19;97888.75;5015790;27;102504;-74
2022/02/21 09:31:27;;;;;;;6.00;2.00;;;;;;;7.48;60.78;97873.81;5014239;27;103620;-75
2022/02/21 09:33:57;;;;;;;8.47;2.10;;;;;;;7.51;61.49;97864.88;5016760;27;105181;-70
2022/02/21 09:36:25;;;;;;;6.57;2.20;;;;;;;7.30;61.31;97864.63;5015526;27;103333;-69
2022/02/21 09:38:53;;;;;;;7.93;2.17;;;;;;;7.53;61.87;97866.44;5012069;27;102674;-70
2022/02/21 09:41:21;;;;;;;5.53;1.80;;;;;;;7.68;62.08;97845.22;5012375;27;103982;-70
2022/02/21 09:43:49;;;;;;;9.53;2.13;;;;;;;8.24;61.82;97847.06;5019925;27;103178;-75
2022/02/21 09:46:18;;;;;;;9.47;2.37;;;;;;;8.51;61.02;97847.63;5015420;27;103372;-75
2022/02/21 09:48:48;;;;;;;7.40;1.87;;;;;;;8.44;59.96;97825.38;5016591;27;102686;-75
2022/02/21 09:51:18;;;;;;;11.67;2.20;;;;;;;8.87;58.20;97825.47;5018199;27;103776;-75
2022/02/21 09:53:46;;;;;;;10.43;2.00;;;;;;;8.90;55.95;97829.69;5018023;27;103990;-75
2022/02/21 09:56:14;;;;;;;8.93;2.00;;;;;;;9.25;55.64;97836.44;5013759;27;103028;-75
2022/02/21 09:58:42;;;;;;;6.17;2.00;;;;;;;8.94;55.54;97841.63;5017324;27;102734;-71
2022/02/21 10:01:13;;;;;;;6.67;2.00;;;;;;;9.14;55.96;97843.53;5016700;27;102622;-70
2022/02/21 10:03:45;;;;;;;10.07;2.13;;;;;;;8.80;55.74;97860.31;5015351;27;104014;-70
2022/02/21 10:06:19;;;;;;;7.63;1.80;;;;;;;8.27;56.94;97860.03;5011672;27;103256;-70
2022/02/21 10:09:09;;;;;;;9.83;2.37;;;;;;;8.30;56.70;97846.66;5017643;27;102677;-70
2022/02/21 10:11:39;;;;;;;6.43;1.87;;;;;;;8.63;57.32;97867.75;5016715;27;102812;-70
2022/02/21 10:14:12;;;;;;;5.80;2.40;;;;;;;8.60;56.34;97860.06;5019246;27;103205;-70
2022/02/21 10:16:42;;;;;;;7.00;2.00;;;;;;;8.78;55.05;97856.97;5020079;27;103319;-70
2022/02/21 10:19:12;;;;;;;5.10;1.77;;;;;;;9.12;54.44;97850.72;5016257;27;102995;-70
2022/02/21 10:21:59;;;;;;;5.60;2.13;;;;;;;9.32;53.54;97849.94;5017159;27;104000;-70
2022/02/21 10:24:29;;;;;;;10.00;2.10;;;;;;;9.71;53.36;97849.34;5016325;27;104085;-70
2022/02/21 10:27:05;;;;;;;5.27;1.63;;;;;;;9.73;51.81;97841.31;5016727;27;103189;-71
2022/02/21 10:29:37;;;;;;;6.40;1.80;;;;;;;9.64;51.12;97840.28;5018254;27;102650;-75
2022/02/21 10:32:10;;;;;;;4.27;1.63;;;;;;;9.55;50.17;97848.94;5015558;27;102725;-70
2022/02/21 10:34:38;;;;;;;6.00;1.67;;;;;;;9.58;49.92;97827.59;5012616;27;104285;-71
2022/02/21 10:37:08;;;;;;;4.27;1.30;;;;;;;9.69;50.93;97835.47;5020199;27;104193;-71
2022/02/21 10:39:36;;;;;;;4.97;1.97;;;;;;;9.27;50.28;97818.69;5023215;27;103745;-70
2022/02/21 10:42:07;;;;;;;6.30;1.73;;;;;;;9.15;50.09;97826.78;5017724;27;103853;-70
2022/02/21 10:44:39;;;;;;;4.30;1.60;;;;;;;9.42;50.42;97821.91;5020233;27;104345;-71
2022/02/21 10:47:12;;;;;;;6.07;1.53;;;;;;;9.50;50.83;97821.28;5019533;27;103249;-70
2022/02/21 10:49:52;;;;;;;4.20;1.80;;;;;;;9.82;50.31;97825.56;5006699;27;102747;-70
2022/02/21 10:52:24;;;;;;;4.73;1.50;;;;;;;9.71;49.77;97838.00;5020699;27;104249;-70
2022/02/21 10:54:53;;;;;;;5.37;2.03;;;;;;;9.84;49.92;97828.09;5021458;27;103236;-75
2022/02/21 10:57:25;;;;;;;4.13;1.60;;;;;;;10.36;49.03;97830.69;5012009;27;104357;-75
2022/02/21 10:59:54;;;;;;;5.17;1.63;;;;;;;9.90;49.06;97823.16;5009773;27;102624;-70
2022/02/21 11:02:23;;;;;;;3.53;1.40;;;;;;;9.90;47.73;97822.31;5020777;27;103256;-70
2022/02/21 11:04:53;;;;;;;6.53;1.93;;;;;;;9.85;47.60;97809.47;5020155;27;103277;-70
2022/02/21 11:07:24;;;;;;;4.70;1.83;;;;;;;10.03;47.55;97814.19;5017635;27;103013;-75
2022/02/21 11:09:53;;;;;;;4.90;1.80;;;;;;;9.94;46.71;97799.97;5013242;27;102692;-70
2022/02/21 11:12:23;;;;;;;3.67;1.50;;;;;;;10.02;48.34;97817.81;5004787;27;104659;-70
2022/02/21 11:14:52;;;;;;;7.83;1.70;;;;;;;10.23;47.19;97810.75;5015532;27;104233;-74
2022/02/21 11:17:20;;;;;;;3.93;1.67;;;;;;;10.00;48.39;97827.63;5018524;27;104141;-70
2022/02/21 11:19:48;;;;;;;4.00;1.60;;;;;;;9.42;50.27;97834.25;5018994;27;102695;-70
2022/02/21 11:22:18;;;;;;;4.67;1.60;;;;;;;9.51;50.73;97833.50;5017531;27;103473;-74
2022/02/21 11:24:52;;;;;;;3.33;1.60;;;;;;;9.13;52.88;97836.56;5017871;27;103245;-75
2022/02/21 11:27:31;;;;;;;5.33;1.70;;;;;;;9.10;55.53;97842.09;5016321;27;103238;-75
2022/02/21 11:30:07;;;;;;;6.07;2.00;;;;;;;8.85;56.60;97873.97;5019036;27;102587;-75
2022/02/21 11:32:35;;;;;;;4.70;1.57;;;;;;;8.68;58.42;97891.91;5015365;27;102646;-75
2022/02/21 11:35:14;;;;;;;6.70;1.87;;;;;;;7.73;66.64;97877.28;5015547;27;104218;-74
2022/02/21 11:37:45;;;;;;;4.23;1.23;;;;;;;7.27;67.00;97858.78;5011634;27;103974;-74
2022/02/21 11:40:16;;;;;;;3.87;1.40;;;;;;;7.48;67.44;97865.94;5018240;27;102750;-75